Time;durP1;ratioP1;P1;durP2;ratioP2;P2;SDS_P1;SDS_P2;PMS_P1;PMS_P2;Temp;Humidity;BMP_temperature;BMP_pressure;BME280_temperature;BME280_humidity;BME280_pressure;Samples;Min_cycle;Max_cycle;Signal;HPM_P1;HPM_P2
2022/04/17 00:00:41;;;;;;;7.78;5.00;;;;;;;6.81;62.09;101705.69;1718356;83;25728;-62
2022/04/17 00:03:08;;;;;;;6.03;4.67;;;;;;;6.76;62.02;101700.21;1718575;83;25705;-62
2022/04/17 00:05:36;;;;;;;6.78;4.35;;;;;;;6.74;61.51;101696.30;1718427;83;27499;-62
2022/04/17 00:08:04;;;;;;;6.20;3.60;;;;;;;6.71;61.24;101692.45;1718364;83;25812;-62
2022/04/17 00:10:31;;;;;;;4.65;3.35;;;;;;;6.69;60.35;101697.91;1718462;83;25544;-62
2022/04/17 00:12:58;;;;;;;3.83;2.87;;;;;;;6.69;59.86;101705.92;1691786;83;25876;-62
2022/04/17 00:15:25;;;;;;;6.75;2.77;;;;;;;6.65;59.33;101714.20;1718438;83;25765;-62
2022/04/17 00:17:52;;;;;;;2.40;2.15;;;;;;;6.62;58.46;101718.37;1718670;83;28170;-62
2022/04/17 00:20:19;;;;;;;3.10;2.12;;;;;;;6.63;57.93;101724.13;1714717;83;25728;-62
2022/04/17 00:22:47;;;;;;;3.92;2.00;;;;;;;6.62;55.58;101711.70;1748210;82;25744;-62
2022/04/17 00:25:15;;;;;;;2.60;1.90;;;;;;;6.51;55.19;101715.84;1747388;82;25873;-62
2022/04/17 00:27:42;;;;;;;2.30;1.80;;;;;;;6.48;54.83;101719.16;1747505;82;25827;-62
2022/04/17 00:30:10;;;;;;;5.92;1.90;;;;;;;6.42;54.46;101717.23;1747208;82;27445;-62
2022/04/17 00:32:38;;;;;;;2.58;1.40;;;;;;;6.42;54.06;101725.70;1747720;82;25897;-62
2022/04/17 00:35:09;;;;;;;3.37;2.02;;;;;;;6.39;54.43;101736.59;1747325;82;25787;-62
2022/04/17 00:37:37;;;;;;;6.35;2.08;;;;;;;6.38;54.60;101722.34;1747641;82;26043;-62
2022/04/17 00:40:07;;;;;;;2.90;1.47;;;;;;;6.38;54.81;101732.19;1747294;82;25462;-62
2022/04/17 00:42:34;;;;;;;9.33;1.90;;;;;;;6.39;54.75;101741.45;1747475;82;28132;-62
2022/04/17 00:45:01;;;;;;;2.30;1.65;;;;;;;6.37;54.47;101743.83;1747279;82;25790;-62
2022/04/17 00:47:28;;;;;;;2.15;1.72;;;;;;;6.33;54.56;101743.59;1747969;82;25815;-62
2022/04/17 00:49:56;;;;;;;3.42;1.82;;;;;;;6.32;54.83;101740.56;1738401;82;25734;-62
2022/04/17 00:52:23;;;;;;;4.87;1.90;;;;;;;6.26;54.01;101746.61;1730096;81;25716;-62
2022/04/17 00:54:51;;;;;;;9.98;2.60;;;;;;;6.20;54.42;101745.63;1729786;82;27495;-62
2022/04/17 00:57:18;;;;;;;2.80;2.12;;;;;;;6.21;54.74;101738.00;1729979;82;25945;-62
2022/04/17 00:59:49;;;;;;;2.70;1.65;;;;;;;6.20;54.61;101737.60;1749089;82;25781;-62
2022/04/17 01:02:16;;;;;;;5.83;2.77;;;;;;;6.23;54.44;101735.23;1749010;82;25518;-62
2022/04/17 01:04:45;;;;;;;3.80;1.70;;;;;;;6.23;54.59;101724.05;1748998;82;25624;-62
2022/04/17 01:07:13;;;;;;;3.77;1.90;;;;;;;6.21;54.73;101727.31;1712811;83;27686;-62
2022/04/17 01:09:40;;;;;;;5.58;2.27;;;;;;;6.21;54.77;101729.98;1748879;81;25826;-62
2022/04/17 01:12:11;;;;;;;4.67;2.10;;;;;;;6.21;54.89;101731.77;1713015;83;25737;-63
2022/04/17 01:14:42;;;;;;;1.98;1.70;;;;;;;6.19;54.71;101729.65;1749008;82;26220;-62
2022/04/17 01:17:12;;;;;;;6.20;2.22;;;;;;;6.19;54.74;101729.65;1713199;82;25952;-62
2022/04/17 01:19:42;;;;;;;1.75;1.60;;;;;;;6.18;54.66;101727.47;1746858;82;28491;-62
2022/04/17 01:22:12;;;;;;;3.45;2.37;;;;;;;6.15;54.72;101722.28;1704877;84;25749;-62
2022/04/17 01:27:26;;;;;;;3.00;1.70;;;;;;;6.09;54.64;101716.83;1739514;82;25727;-62
2022/04/17 01:29:53;;;;;;;2.02;1.57;;;;;;;6.05;54.79;101711.73;1739217;82;25803;-62
2022/04/17 01:32:21;;;;;;;4.03;1.70;;;;;;;6.03;54.71;101710.46;1739758;82;27630;-62
2022/04/17 01:34:48;;;;;;;2.62;1.90;;;;;;;6.02;54.86;101716.74;1739219;82;26225;-62
2022/04/17 01:37:21;;;;;;;4.22;1.82;;;;;;;6.02;54.88;101713.22;1739810;82;25545;-62
2022/04/17 01:39:46;;;;;;;2.95;1.80;;;;;;;5.96;54.55;101725.07;1738253;82;25807;-62
2022/04/17 01:42:14;;;;;;;3.15;1.98;;;;;;;5.93;54.76;101718.09;1739188;82;25485;-62
2022/04/17 01:47:43;;;;;;;3.50;2.15;;;;;;;5.82;54.62;101714.28;1741833;81;25719;-61
2022/04/17 01:50:10;;;;;;;3.33;1.92;;;;;;;5.80;54.94;101717.00;1739615;81;25557;-62
2022/04/17 01:52:36;;;;;;;4.53;2.20;;;;;;;5.80;55.01;101721.02;1730292;81;25520;-62
2022/04/17 01:55:04;;;;;;;4.97;1.90;;;;;;;5.74;55.14;101722.69;1730345;81;25693;-62
2022/04/17 01:57:31;;;;;;;4.72;2.10;;;;;;;5.76;55.33;101716.80;1731279;81;27462;-61
2022/04/17 01:59:59;;;;;;;3.72;1.87;;;;;;;5.78;55.45;101717.59;1741014;82;25661;-62
2022/04/17 02:02:26;;;;;;;2.25;1.90;;;;;;;5.75;55.36;101717.73;1705172;84;25784;-62
2022/04/17 02:04:52;;;;;;;2.55;1.87;;;;;;;5.78;55.45;101725.59;1740770;81;25799;-62
2022/04/17 02:07:19;;;;;;;4.00;1.90;;;;;;;5.84;55.54;101717.25;1705263;84;26538;-62
2022/04/17 02:09:46;;;;;;;5.40;2.33;;;;;;;5.87;55.45;101709.05;1740851;82;27497;-62
2022/04/17 02:12:14;;;;;;;4.42;2.15;;;;;;;5.89;55.45;101703.65;1705123;83;25780;-61
2022/04/17 02:14:41;;;;;;;5.87;2.33;;;;;;;5.93;55.56;101699.84;1741044;81;25815;-62
2022/04/17 02:17:07;;;;;;;3.45;1.80;;;;;;;5.93;55.58;101697.18;1705122;84;25660;-62
2022/04/17 02:19:36;;;;;;;4.33;2.33;;;;;;;5.93;55.72;101702.52;1740893;81;25759;-61
2022/04/17 02:22:04;;;;;;;2.52;2.02;;;;;;;5.94;55.93;101705.13;1704071;83;27538;-62
2022/04/17 02:24:32;;;;;;;3.05;2.02;;;;;;;5.99;55.74;101702.66;1740716;81;25813;-62
2022/04/17 02:26:59;;;;;;;3.10;2.12;;;;;;;5.93;55.29;101708.74;1740908;80;25452;-62
2022/04/17 02:29:25;;;;;;;3.70;1.90;;;;;;;5.90;55.54;101712.91;1740856;82;27644;-62
2022/04/17 02:31:52;;;;;;;3.50;2.00;;;;;;;5.89;55.60;101712.52;1741007;82;25716;-62
2022/04/17 02:34:19;;;;;;;4.33;2.17;;;;;;;5.87;55.29;101715.73;1741068;80;26733;-62
2022/04/17 02:36:46;;;;;;;4.90;1.85;;;;;;;5.79;55.25;101712.16;1741101;80;25631;-62
2022/04/17 02:39:13;;;;;;;2.27;1.77;;;;;;;5.76;55.52;101716.80;1740765;81;25876;-62
2022/04/17 02:41:40;;;;;;;3.12;1.85;;;;;;;5.71;55.48;101712.16;1740855;80;25508;-61
2022/04/17 02:44:07;;;;;;;3.77;2.02;;;;;;;5.66;55.44;101721.74;1740765;81;25772;-62
2022/04/17 02:49:18;;;;;;;6.10;2.33;;;;;;;5.59;55.12;101720.34;1705452;84;25779;-61
2022/04/17 02:51:45;;;;;;;2.92;1.90;;;;;;;5.59;55.21;101719.01;1740766;82;25646;-61
2022/04/17 02:54:12;;;;;;;5.30;2.00;;;;;;;5.59;55.26;101710.55;1705162;84;25623;-61
2022/04/17 02:56:39;;;;;;;1.95;1.52;;;;;;;5.59;55.25;101713.67;1740909;81;25727;-62
2022/04/17 02:59:06;;;;;;;2.65;2.02;;;;;;;5.60;55.57;101722.92;1718132;82;28470;-62
2022/04/17 03:07:04;;;;;;;3.55;2.85;;;;;;;5.37;56.28;101726.81;1722273;83;25671;-62
2022/04/17 03:09:31;;;;;;;3.72;2.45;;;;;;;5.24;56.92;101727.03;1722417;82;25886;-63
2022/04/17 03:11:57;;;;;;;5.45;2.17;;;;;;;5.21;56.70;101714.72;1722637;81;28387;-63
2022/04/17 03:14:25;;;;;;;5.10;2.00;;;;;;;5.23;57.17;101711.97;1722311;81;27289;-63
2022/04/17 03:16:51;;;;;;;4.70;2.35;;;;;;;5.21;57.27;101709.39;1722335;83;25780;-62
2022/04/17 03:19:18;;;;;;;4.40;2.52;;;;;;;5.25;57.62;101707.42;1722228;83;25817;-63
2022/04/17 03:21:45;;;;;;;5.33;2.67;;;;;;;5.27;57.50;101714.41;1729199;82;25478;-62
2022/04/17 03:24:12;;;;;;;3.92;2.67;;;;;;;5.23;57.45;101706.63;1689663;83;28321;-62
2022/04/17 03:26:41;;;;;;;2.95;2.33;;;;;;;5.25;57.45;101709.61;1688160;85;26478;-63
2022/04/17 03:29:07;;;;;;;3.47;2.62;;;;;;;5.24;57.45;101709.70;1688027;85;25783;-62
2022/04/17 03:31:35;;;;;;;8.03;2.75;;;;;;;5.27;57.53;101710.40;1688110;85;25827;-62
2022/04/17 03:34:02;;;;;;;3.62;2.10;;;;;;;5.26;57.50;101708.67;1687997;85;26001;-62
2022/04/17 03:36:28;;;;;;;5.30;3.27;;;;;;;5.27;57.58;101705.55;1688517;83;27617;-63
2022/04/17 03:38:55;;;;;;;2.42;2.22;;;;;;;5.23;57.70;101700.84;1688096;83;25705;-63
2022/04/17 03:41:22;;;;;;;5.42;2.52;;;;;;;5.25;57.71;101698.09;1688235;84;25735;-63
2022/04/17 03:43:49;;;;;;;3.98;2.22;;;;;;;5.28;57.66;101702.79;1688030;85;25606;-62
2022/04/17 03:46:15;;;;;;;5.20;3.02;;;;;;;5.32;57.73;101717.72;1710382;83;25849;-63
2022/04/17 03:48:42;;;;;;;5.30;2.45;;;;;;;5.32;57.79;101715.05;1700366;84;27583;-63
2022/04/17 03:51:09;;;;;;;2.92;2.50;;;;;;;5.24;57.36;101731.92;1700391;84;25782;-62
2022/04/17 03:53:36;;;;;;;6.35;3.87;;;;;;;5.17;57.32;101732.69;1700307;84;25677;-62
2022/04/17 03:56:04;;;;;;;3.92;2.47;;;;;;;5.17;57.53;101729.14;1700271;84;25772;-63
2022/04/17 03:58:31;;;;;;;3.25;2.67;;;;;;;5.22;57.55;101727.12;1694415;84;25821;-62
2022/04/17 04:00:58;;;;;;;2.65;2.40;;;;;;;5.27;57.50;101721.07;1688527;85;27489;-63
2022/04/17 04:03:25;;;;;;;4.15;2.67;;;;;;;5.32;57.42;101720.38;1688421;85;25499;-63
2022/04/17 04:05:52;;;;;;;5.25;2.87;;;;;;;5.38;57.33;101729.85;1688922;85;25686;-63
2022/04/17 04:08:18;;;;;;;4.40;2.50;;;;;;;5.36;57.22;101729.55;1688446;84;25503;-63
2022/04/17 04:10:45;;;;;;;4.33;2.80;;;;;;;5.24;57.52;101733.25;1688581;85;25760;-63
2022/04/17 04:13:12;;;;;;;5.05;2.87;;;;;;;5.22;57.65;101748.92;1688443;85;27485;-63
2022/04/17 04:15:38;;;;;;;7.90;3.02;;;;;;;5.17;58.29;101754.03;1688728;85;25756;-63
2022/04/17 04:18:05;;;;;;;6.95;3.27;;;;;;;5.09;58.19;101748.22;1688669;84;25788;-63
2022/04/17 04:20:32;;;;;;;5.22;2.77;;;;;;;5.07;58.47;101739.88;1687741;84;25804;-62
2022/04/17 04:22:59;;;;;;;5.37;3.17;;;;;;;5.15;58.49;101740.38;1741720;82;25460;-62
2022/04/17 04:25:26;;;;;;;4.15;2.75;;;;;;;5.23;58.52;101734.19;1746089;82;27546;-62
2022/04/17 04:30:38;;;;;;;3.50;2.55;;;;;;;5.29;58.52;101743.20;1746305;81;25673;-61
2022/04/17 04:33:05;;;;;;;5.87;3.00;;;;;;;5.32;58.30;101738.18;1746232;81;25716;-62
2022/04/17 04:35:33;;;;;;;9.73;2.90;;;;;;;5.32;58.11;101743.52;1746271;82;25693;-62
2022/04/17 04:38:01;;;;;;;17.42;9.43;;;;;;;5.33;58.16;101749.25;1746362;82;27534;-62
2022/04/17 04:40:29;;;;;;;6.97;3.20;;;;;;;5.32;58.18;101747.06;1746153;82;25687;-62
2022/04/17 04:43:00;;;;;;;3.75;2.83;;;;;;;5.36;58.30;101745.55;1746289;82;25690;-62
2022/04/17 04:48:14;;;;;;;8.33;2.90;;;;;;;5.45;58.30;101746.41;1759665;81;25716;-61
2022/04/17 04:50:41;;;;;;;3.95;2.62;;;;;;;5.40;58.07;101756.48;1737471;81;27634;-61
2022/04/17 04:53:08;;;;;;;4.78;3.02;;;;;;;5.40;58.01;101753.81;1732872;82;26122;-61
2022/04/17 04:55:35;;;;;;;7.53;2.75;;;;;;;5.47;58.10;101753.88;1732761;81;25706;-62
2022/04/17 04:58:02;;;;;;;4.25;2.67;;;;;;;5.53;57.71;101754.04;1735455;82;25761;-62
2022/04/17 05:00:30;;;;;;;3.75;2.80;;;;;;;5.52;57.40;101758.98;1740334;82;25770;-62
2022/04/17 05:02:57;;;;;;;4.10;2.92;;;;;;;5.56;57.56;101767.23;1740725;82;27684;-61
2022/04/17 05:05:24;;;;;;;11.48;3.77;;;;;;;5.55;56.99;101766.36;1740139;82;25743;-62
2022/04/17 05:07:51;;;;;;;4.78;3.22;;;;;;;5.59;57.29;101765.27;1740364;82;25698;-62
2022/04/17 05:10:18;;;;;;;4.97;3.05;;;;;;;5.67;57.25;101773.34;1740502;82;26103;-62
2022/04/17 05:12:45;;;;;;;4.47;2.70;;;;;;;5.73;57.04;101765.89;1740327;82;25799;-61
2022/04/17 05:15:12;;;;;;;4.60;2.70;;;;;;;5.84;57.00;101761.77;1740724;81;27714;-62
2022/04/17 05:17:38;;;;;;;5.78;2.70;;;;;;;5.90;56.86;101767.66;1740442;82;25867;-61
2022/04/17 05:20:08;;;;;;;10.32;3.02;;;;;;;5.96;56.58;101757.12;1740274;82;25692;-61
2022/04/17 05:22:35;;;;;;;4.80;2.45;;;;;;;6.02;56.11;101753.30;1745736;82;26490;-62
2022/04/17 05:25:02;;;;;;;7.22;2.50;;;;;;;6.01;55.65;101746.22;1746814;82;25770;-62
2022/04/17 05:27:29;;;;;;;6.50;2.17;;;;;;;6.01;55.65;101742.22;1746142;80;27568;-62
2022/04/17 05:29:56;;;;;;;3.55;2.80;;;;;;;6.04;55.16;101738.91;1707970;84;25784;-61
2022/04/17 05:32:23;;;;;;;3.77;2.62;;;;;;;6.00;54.69;101744.49;1746681;81;26080;-62
2022/04/17 05:34:50;;;;;;;3.87;2.92;;;;;;;5.98;54.63;101743.67;1746742;82;26169;-62
2022/04/17 05:37:17;;;;;;;31.85;18.55;;;;;;;6.01;54.85;101744.40;1746818;82;25882;-61
2022/04/17 05:39:44;;;;;;;6.95;4.40;;;;;;;6.09;55.20;101738.66;1746684;82;27468;-62
2022/04/17 05:42:12;;;;;;;8.63;3.75;;;;;;;6.16;54.98;101730.69;1746344;82;25704;-62
2022/04/17 05:44:38;;;;;;;5.33;2.83;;;;;;;6.16;54.88;101737.37;1746380;82;25743;-61
2022/04/17 05:47:05;;;;;;;7.45;3.05;;;;;;;6.20;54.33;101738.06;1749714;81;25831;-61
2022/04/17 05:49:32;;;;;;;5.92;3.12;;;;;;;6.17;54.09;101732.91;1748242;80;26227;-61
2022/04/17 05:51:59;;;;;;;2.92;2.30;;;;;;;6.19;54.11;101744.34;1727936;83;27468;-62
2022/04/17 05:54:27;;;;;;;5.50;3.10;;;;;;;6.22;54.04;101751.75;1728214;81;25521;-62
2022/04/17 05:56:53;;;;;;;7.37;3.30;;;;;;;6.32;54.04;101752.58;1703090;81;25737;-62
2022/04/17 05:59:20;;;;;;;9.35;3.05;;;;;;;6.28;53.70;101745.66;1717135;82;25660;-61
2022/04/17 06:01:47;;;;;;;2.80;2.45;;;;;;;6.29;53.68;101734.03;1714919;83;25661;-62
2022/04/17 06:04:14;;;;;;;6.55;3.20;;;;;;;6.36;53.81;101736.75;1715114;83;28519;-62
2022/04/17 06:06:42;;;;;;;4.67;3.00;;;;;;;6.46;53.64;101732.63;1715253;82;25796;-61
2022/04/17 06:09:09;;;;;;;4.62;3.10;;;;;;;6.50;53.53;101722.13;1714937;82;25827;-61
2022/04/17 06:11:36;;;;;;;3.45;2.50;;;;;;;6.57;53.60;101721.31;1715134;83;25762;-62
2022/04/17 06:14:03;;;;;;;4.80;3.15;;;;;;;6.63;53.14;101736.16;1715184;82;25633;-62
2022/04/17 06:16:29;;;;;;;4.83;2.60;;;;;;;6.67;53.17;101748.41;1715204;82;27335;-62
2022/04/17 06:18:56;;;;;;;4.70;2.83;;;;;;;6.70;52.97;101746.42;1715121;83;25784;-62
2022/04/17 06:21:23;;;;;;;2.92;2.65;;;;;;;6.77;52.53;101738.05;1687102;83;25758;-62
2022/04/17 06:23:50;;;;;;;3.72;2.58;;;;;;;6.81;52.75;101739.12;1742650;80;25720;-62
2022/04/17 06:26:16;;;;;;;4.20;2.72;;;;;;;6.89;52.86;101748.90;1750866;81;25780;-62
2022/04/17 06:28:43;;;;;;;3.62;2.77;;;;;;;6.95;52.51;101746.35;1751108;81;29700;-62
2022/04/17 06:31:10;;;;;;;5.62;3.00;;;;;;;7.05;52.11;101741.31;1750889;81;25696;-62
2022/04/17 06:33:36;;;;;;;3.40;2.80;;;;;;;7.12;52.02;101743.16;1750835;80;25715;-62
2022/04/17 06:36:05;;;;;;;3.80;2.85;;;;;;;7.19;52.42;101753.43;1751043;81;27595;-62
2022/04/17 06:38:32;;;;;;;2.77;2.55;;;;;;;7.40;52.09;101751.75;1750911;80;25786;-62
2022/04/17 06:40:59;;;;;;;6.40;2.50;;;;;;;7.47;51.67;101735.73;1731155;81;27625;-62
2022/04/17 06:43:26;;;;;;;3.90;2.47;;;;;;;7.58;51.79;101735.53;1751071;80;26031;-62
2022/04/17 06:45:52;;;;;;;4.37;2.50;;;;;;;7.61;51.07;101736.23;1751392;80;25716;-61
2022/04/17 06:48:22;;;;;;;3.00;2.08;;;;;;;7.55;50.87;101725.88;1751255;81;25758;-62
2022/04/17 06:50:52;;;;;;;4.10;2.67;;;;;;;7.51;51.18;101722.53;1715048;83;25740;-62
2022/04/17 06:53:19;;;;;;;4.35;2.50;;;;;;;7.49;51.33;101739.65;1699234;83;27454;-62
2022/04/17 06:55:50;;;;;;;4.25;2.37;;;;;;;7.61;51.39;101755.45;1715035;83;25661;-61
2022/04/17 06:58:19;;;;;;;3.08;2.47;;;;;;;7.65;51.31;101756.51;1746558;81;25743;-62
2022/04/17 07:00:48;;;;;;;4.55;2.62;;;;;;;7.78;50.57;101761.98;1740590;82;26474;-61
2022/04/17 07:03:16;;;;;;;2.95;2.37;;;;;;;7.80;49.88;101755.17;1740429;81;25861;-61
2022/04/17 07:05:43;;;;;;;5.90;4.00;;;;;;;7.83;49.82;101749.64;1740743;81;27500;-62
2022/04/17 07:08:10;;;;;;;4.95;2.85;;;;;;;7.82;49.75;101751.93;1740361;81;25705;-61
2022/04/17 07:10:40;;;;;;;8.95;5.53;;;;;;;7.88;49.95;101761.41;1740466;82;25806;-62
2022/04/17 07:13:15;;;;;;;3.22;2.50;;;;;;;7.92;49.64;101760.28;1740533;82;25716;-62
2022/04/17 07:15:42;;;;;;;13.45;4.40;;;;;;;7.96;49.01;101752.42;1740550;81;25890;-61
2022/04/17 07:18:09;;;;;;;10.10;4.97;;;;;;;7.96;49.18;101749.28;1740488;81;27530;-62
2022/04/17 07:20:36;;;;;;;7.08;3.65;;;;;;;7.97;48.49;101748.79;1740426;81;25479;-62
2022/04/17 07:23:06;;;;;;;8.48;4.40;;;;;;;7.99;48.74;101745.05;1751328;81;25867;-62
2022/04/17 07:25:34;;;;;;;4.62;3.00;;;;;;;8.09;48.96;101741.34;1718408;83;25874;-62
2022/04/17 07:28:02;;;;;;;3.72;2.70;;;;;;;8.27;48.97;101741.13;1718396;83;25731;-62
2022/04/17 07:30:33;;;;;;;5.05;2.65;;;;;;;8.45;47.92;101731.91;1718716;83;27450;-61
2022/04/17 07:33:01;;;;;;;5.20;2.62;;;;;;;8.44;47.86;101741.38;1718110;83;25798;-61
2022/04/17 07:35:29;;;;;;;3.92;2.45;;;;;;;8.49;47.31;101736.63;1718685;83;25845;-62
2022/04/17 07:38:03;;;;;;;3.52;2.85;;;;;;;8.51;47.37;101744.56;1718147;83;26479;-62
2022/04/17 07:40:34;;;;;;;6.97;2.92;;;;;;;8.46;47.24;101736.33;1718756;83;25759;-61
2022/04/17 07:43:04;;;;;;;6.47;2.62;;;;;;;8.57;47.27;101732.09;1718330;83;27474;-62
2022/04/17 07:45:32;;;;;;;3.12;2.20;;;;;;;8.75;47.30;101730.05;1718538;83;25719;-61
2022/04/17 07:47:59;;;;;;;9.28;4.30;;;;;;;8.92;46.81;101726.23;1714682;83;25762;-62
2022/04/17 07:50:31;;;;;;;5.47;2.98;;;;;;;8.89;45.73;101727.80;1718037;83;25807;-61
2022/04/17 07:53:00;;;;;;;4.95;2.20;;;;;;;9.02;46.27;101730.03;1718231;82;25740;-61
2022/04/17 07:55:27;;;;;;;5.58;2.72;;;;;;;9.30;45.92;101714.74;1731283;81;27458;-61
2022/04/17 07:58:22;;;;;;;3.42;2.58;;;;;;;9.47;44.69;101716.28;1727638;82;25873;-61
2022/04/17 08:00:46;;;;;;;3.85;2.20;;;;;;;9.71;44.75;101698.95;1692111;83;25771;-62
2022/04/17 08:03:24;;;;;;;4.75;2.30;;;;;;;9.93;44.47;101693.88;1718336;83;25860;-62
2022/04/17 08:05:51;;;;;;;3.77;2.47;;;;;;;10.12;42.82;101688.03;1718603;83;25791;-61
2022/04/17 08:08:18;;;;;;;2.45;1.85;;;;;;;10.15;42.88;101693.20;1718299;83;28318;-61
2022/04/17 08:10:46;;;;;;;4.90;2.67;;;;;;;10.20;42.88;101698.23;1718374;83;25835;-61
2022/04/17 08:13:13;;;;;;;4.17;2.10;;;;;;;10.09;41.91;101688.23;1718338;83;25653;-61
2022/04/17 08:15:39;;;;;;;4.58;2.58;;;;;;;10.12;41.76;101686.68;1718447;83;25795;-61
2022/04/17 08:18:06;;;;;;;3.00;2.30;;;;;;;10.05;42.34;101688.95;1718321;83;25780;-61
2022/04/17 08:20:33;;;;;;;2.40;2.20;;;;;;;10.11;42.22;101683.62;1718332;82;27500;-61
2022/04/17 08:23:00;;;;;;;2.33;1.52;;;;;;;10.24;41.52;101693.88;1713969;83;25807;-61
2022/04/17 08:25:27;;;;;;;3.15;1.98;;;;;;;10.21;42.10;101679.80;1747180;82;25741;-61
2022/04/17 08:27:56;;;;;;;3.33;1.95;;;;;;;10.27;42.64;101677.49;1747301;82;26168;-61
2022/04/17 08:30:26;;;;;;;3.05;2.05;;;;;;;10.41;41.87;101685.09;1747530;82;25458;-61
2022/04/17 08:32:54;;;;;;;2.65;2.05;;;;;;;10.45;41.45;101684.75;1747576;82;27617;-61
2022/04/17 08:35:23;;;;;;;1.57;1.47;;;;;;;10.44;41.30;101681.69;1747205;82;25802;-61
2022/04/17 08:37:52;;;;;;;4.25;1.47;;;;;;;10.37;40.85;101677.73;1747582;82;25815;-61
2022/04/17 08:40:19;;;;;;;1.70;1.60;;;;;;;10.42;40.27;101668.82;1747332;82;25767;-61
2022/04/17 08:42:46;;;;;;;3.92;1.50;;;;;;;10.44;39.53;101670.92;1747713;82;25799;-61
2022/04/17 08:45:13;;;;;;;1.95;1.57;;;;;;;10.37;39.40;101660.25;1747249;82;27719;-61
2022/04/17 08:47:43;;;;;;;5.25;1.80;;;;;;;10.12;40.28;101664.70;1748141;82;25822;-61
2022/04/17 08:50:19;;;;;;;3.45;2.27;;;;;;;9.99;40.07;101667.89;1737000;81;25840;-61
2022/04/17 08:52:49;;;;;;;2.52;1.62;;;;;;;9.94;40.37;101666.88;1729757;81;25713;-61
2022/04/17 08:55:17;;;;;;;4.25;3.50;;;;;;;9.92;40.71;101671.50;1729917;82;25797;-61
2022/04/17 08:57:44;;;;;;;2.67;2.15;;;;;;;9.97;40.96;101663.98;1733719;82;27604;-61
2022/04/17 09:00:16;;;;;;;3.83;1.35;;;;;;;10.00;40.07;101669.11;1712845;82;25937;-61
2022/04/17 09:02:44;;;;;;;3.25;1.40;;;;;;;10.03;39.20;101658.65;1712626;83;25776;-61
2022/04/17 09:05:14;;;;;;;1.40;1.00;;;;;;;10.00;38.69;101656.17;1712918;82;26335;-61
2022/04/17 09:07:50;;;;;;;1.42;0.95;;;;;;;9.96;38.51;101650.63;1713166;83;25494;-61
2022/04/17 09:10:30;;;;;;;1.37;1.20;;;;;;;9.98;37.94;101644.20;1684609;83;27657;-62
2022/04/17 09:13:03;;;;;;;4.50;1.52;;;;;;;10.01;38.38;101641.77;1748726;80;25857;-62
2022/04/17 09:15:34;;;;;;;1.62;1.52;;;;;;;10.05;38.73;101641.05;1712819;83;25759;-62
2022/04/17 09:18:02;;;;;;;2.30;1.37;;;;;;;10.15;38.46;101635.38;1749247;82;26215;-62
2022/04/17 09:20:29;;;;;;;2.17;1.60;;;;;;;10.15;39.15;101644.80;1729913;82;25504;-62
2022/04/17 09:23:00;;;;;;;5.67;1.72;;;;;;;10.28;38.57;101643.41;1753898;81;27465;-62
2022/04/17 09:25:28;;;;;;;2.67;1.40;;;;;;;10.24;39.00;101648.62;1753878;81;25659;-62
2022/04/17 09:28:06;;;;;;;2.15;1.50;;;;;;;10.19;38.51;101650.30;1718426;83;25514;-62
2022/04/17 09:30:39;;;;;;;2.70;1.55;;;;;;;10.22;38.39;101638.49;1717586;83;25740;-62
2022/04/17 09:33:09;;;;;;;2.87;1.72;;;;;;;10.43;38.75;101634.23;1715299;83;26035;-62
2022/04/17 09:35:37;;;;;;;1.72;1.40;;;;;;;10.85;37.98;101635.16;1718004;83;27575;-62
2022/04/17 09:38:08;;;;;;;1.85;1.35;;;;;;;11.80;36.76;101627.33;1718378;83;25717;-62
2022/04/17 09:40:37;;;;;;;5.30;1.60;;;;;;;12.13;35.19;101629.68;1718176;83;25491;-62
2022/04/17 09:43:17;;;;;;;2.50;1.40;;;;;;;12.32;34.93;101621.42;1718401;83;25791;-62
2022/04/17 09:46:06;;;;;;;1.80;1.30;;;;;;;12.32;35.24;101629.02;1718328;83;25891;-63
2022/04/17 09:48:39;;;;;;;5.70;1.52;;;;;;;12.23;34.83;101615.44;1691985;83;27480;-63
2022/04/17 09:51:28;;;;;;;5.53;1.80;;;;;;;12.45;35.26;101599.67;1710672;83;32806;-62
2022/04/17 09:54:07;;;;;;;1.85;1.30;;;;;;;12.45;35.26;101600.52;1718524;83;25780;-62
2022/04/17 09:56:39;;;;;;;4.22;1.40;;;;;;;13.01;33.86;101603.94;1718050;83;26216;-62
2022/04/17 09:59:23;;;;;;;1.35;1.20;;;;;;;13.42;34.44;101595.97;1718126;83;25987;-61
2022/04/17 10:01:54;;;;;;;5.40;2.40;;;;;;;14.03;32.42;101599.09;1731069;81;27847;-62
2022/04/17 10:04:25;;;;;;;5.42;1.40;;;;;;;14.54;31.59;101582.79;1730915;82;25859;-62
2022/04/17 10:06:59;;;;;;;2.87;1.40;;;;;;;13.88;31.61;101589.66;1731337;81;25804;-62
2022/04/17 10:09:26;;;;;;;3.67;1.40;;;;;;;13.26;33.07;101591.88;1731127;82;26383;-61
2022/04/17 10:11:56;;;;;;;1.30;1.10;;;;;;;12.87;32.83;101598.84;1730871;82;26169;-61
2022/04/17 10:14:23;;;;;;;1.50;1.40;;;;;;;12.80;33.46;101586.39;1731081;81;29431;-61
2022/04/17 10:16:53;;;;;;;4.17;1.50;;;;;;;12.86;33.66;101595.81;1693724;84;25812;-61
2022/04/17 10:19:20;;;;;;;3.25;1.60;;;;;;;13.00;34.14;101588.72;1718323;82;25827;-61
2022/04/17 10:21:47;;;;;;;3.02;1.35;;;;;;;13.30;33.61;101591.11;1718772;82;25784;-61
2022/04/17 10:24:21;;;;;;;3.50;1.20;;;;;;;13.13;33.77;101582.61;1707341;83;25783;-62
2022/04/17 10:26:54;;;;;;;2.58;1.20;;;;;;;12.90;33.28;101583.27;1711378;83;27099;-62
2022/04/17 10:29:32;;;;;;;1.60;0.98;;;;;;;12.86;33.87;101594.47;1757402;80;26253;-61
2022/04/17 10:32:32;;;;;;;1.55;1.10;;;;;;;13.02;33.41;101598.91;1748777;80;25916;-62
2022/04/17 10:35:40;;;;;;;2.75;1.65;;;;;;;13.06;32.94;101584.64;1748788;82;26410;-62
2022/04/17 10:38:42;;;;;;;3.75;1.52;;;;;;;12.73;32.77;101594.14;1712858;83;25925;-62
2022/04/17 10:41:10;;;;;;;3.35;1.30;;;;;;;12.43;33.65;101601.12;1748973;82;28367;-62
2022/04/17 10:43:51;;;;;;;3.02;1.40;;;;;;;12.44;34.35;101590.70;1749246;82;25818;-63
2022/04/17 10:46:20;;;;;;;1.45;1.30;;;;;;;12.45;34.22;101591.07;1748315;81;25776;-63
2022/04/17 10:48:55;;;;;;;1.42;1.17;;;;;;;12.48;34.36;101595.34;1749098;80;26457;-62
2022/04/17 10:51:38;;;;;;;1.10;1.00;;;;;;;12.32;33.94;101584.50;1711876;83;25856;-63
2022/04/17 10:54:13;;;;;;;2.10;1.30;;;;;;;12.25;33.47;101595.91;1747695;82;27504;-63
2022/04/17 10:56:43;;;;;;;3.22;1.22;;;;;;;12.46;33.72;101583.34;1747195;82;25744;-62
2022/04/17 10:59:20;;;;;;;1.75;1.00;;;;;;;13.28;32.58;101572.31;1718930;82;25732;-63
2022/04/17 11:01:57;;;;;;;1.47;1.10;;;;;;;14.23;31.06;101568.02;1717581;83;25751;-63
2022/04/17 11:04:31;;;;;;;1.12;1.02;;;;;;;15.03;30.79;101556.52;1716340;83;25755;-63
2022/04/17 11:07:10;;;;;;;1.07;0.90;;;;;;;15.49;29.94;101553.95;1729761;81;29661;-63
2022/04/17 11:09:42;;;;;;;3.12;1.02;;;;;;;15.11;29.44;101557.63;1748797;82;25782;-63
2022/04/17 11:12:20;;;;;;;1.45;0.90;;;;;;;14.56;30.08;101557.27;1748996;82;25828;-63
2022/04/17 11:15:04;;;;;;;1.30;1.10;;;;;;;13.96;29.98;101564.12;1748530;81;25679;-63
2022/04/17 11:17:32;;;;;;;;;;;;;;;13.25;31.49;101563.14;1753606;81;25727;-63
2022/04/17 11:20:00;;;;;;;2.05;1.10;;;;;;;12.72;32.38;101568.64;1757129;81;26998;-63
2022/04/17 11:22:36;;;;;;;3.72;1.30;;;;;;;12.35;32.92;101565.36;1748449;82;25944;-63
2022/04/17 11:25:13;;;;;;;2.50;1.50;;;;;;;12.18;33.51;101573.50;1743991;80;25826;-63
2022/04/17 11:27:50;;;;;;;2.47;1.55;;;;;;;11.79;34.20;101574.39;1732777;81;25694;-63
2022/04/17 11:30:24;;;;;;;5.58;2.10;;;;;;;11.93;34.42;101576.47;1711938;82;25724;-62
2022/04/17 11:32:53;;;;;;;2.77;1.72;;;;;;;11.98;34.14;101582.37;1707286;81;28563;-63
2022/04/17 11:35:24;;;;;;;2.10;1.20;;;;;;;12.08;34.04;101581.14;1756371;81;25538;-63
2022/04/17 11:37:56;;;;;;;3.33;1.00;;;;;;;12.43;33.67;101572.80;1755605;81;25655;-63
2022/04/17 11:40:27;;;;;;;3.55;1.17;;;;;;;12.82;32.26;101564.14;1745979;80;25486;-63
2022/04/17 11:42:56;;;;;;;2.47;1.22;;;;;;;12.91;32.20;101562.51;1749318;81;25947;-63
2022/04/17 11:45:28;;;;;;;2.37;1.15;;;;;;;12.94;32.33;101560.39;1705374;82;27092;-62
2022/04/17 11:47:56;;;;;;;3.12;1.00;;;;;;;13.00;32.78;101570.66;1704276;83;25961;-63
2022/04/17 11:50:27;;;;;;;1.75;1.20;;;;;;;13.17;31.91;101564.31;1751473;81;26360;-62
2022/04/17 11:52:59;;;;;;;2.47;1.82;;;;;;;13.10;31.44;101561.28;1748028;80;25696;-62
2022/04/17 11:55:37;;;;;;;1.12;1.02;;;;;;;13.00;30.49;101567.95;1755733;80;25708;-64
2022/04/17 11:58:14;;;;;;;1.70;0.95;;;;;;;13.28;31.62;101556.10;1751168;80;27511;-64
2022/04/17 12:00:41;;;;;;;0.95;0.85;;;;;;;14.35;30.86;101537.60;1734505;81;25858;-64